createdAt,value
2019-05-30T00:02:11.636Z,3.15
2019-05-30T00:04:40.200Z,2.20
2019-05-30T00:07:11.136Z,5.90
2019-05-30T00:09:39.192Z,5.67
2019-05-30T00:12:07.687Z,4.87
2019-05-30T00:14:36.305Z,5.08
2019-05-30T00:17:05.182Z,4.20
2019-05-30T00:19:34.197Z,2.60
2019-05-30T00:22:03.870Z,4.33
2019-05-30T00:24:33.068Z,5.55
2019-05-30T00:27:02.443Z,3.62
2019-05-30T00:29:31.234Z,4.05
2019-05-30T00:32:00.047Z,5.65
2019-05-30T00:34:28.536Z,3.12
2019-05-30T00:36:57.691Z,7.08
2019-05-30T00:39:26.197Z,5.12
2019-05-30T00:41:55.980Z,6.00
2019-05-30T00:44:24.960Z,5.42
2019-05-30T00:46:53.424Z,4.47
2019-05-30T00:49:21.888Z,3.37
2019-05-30T00:51:50.532Z,6.90
2019-05-30T00:54:19.007Z,2.55
2019-05-30T00:56:47.841Z,3.77
2019-05-30T00:59:16.354Z,9.33
2019-05-30T01:01:44.834Z,5.00
2019-05-30T01:04:13.306Z,5.92
2019-05-30T01:06:42.215Z,4.62
2019-05-30T01:09:10.674Z,5.15
2019-05-30T01:11:39.328Z,2.85
2019-05-30T01:14:07.988Z,3.65
2019-05-30T01:16:36.818Z,6.20
2019-05-30T01:19:05.410Z,4.78
2019-05-30T01:21:34.007Z,2.37
2019-05-30T01:24:03.532Z,3.70
2019-05-30T01:26:32.125Z,4.03
2019-05-30T01:29:01.439Z,6.30
2019-05-30T01:31:30.082Z,3.10
2019-05-30T01:33:59.500Z,5.85
2019-05-30T01:36:28.111Z,4.55
2019-05-30T01:38:57.696Z,3.12
2019-05-30T01:44:55.451Z,7.42
2019-05-30T01:47:24.078Z,5.00
2019-05-30T01:49:52.550Z,2.92
2019-05-30T01:52:21.210Z,3.70
2019-05-30T01:54:49.714Z,6.08
2019-05-30T01:57:18.535Z,6.30
2019-05-30T01:59:47.038Z,2.40
2019-05-30T02:02:15.478Z,5.08
2019-05-30T02:04:43.949Z,3.72
2019-05-30T02:07:12.440Z,4.58
2019-05-30T02:09:40.919Z,3.72
2019-05-30T02:12:09.681Z,5.17
2019-05-30T02:14:38.158Z,5.03
2019-05-30T02:17:07.809Z,4.42
2019-05-30T02:19:36.321Z,4.10
2019-05-30T02:22:05.840Z,5.83
2019-05-30T02:24:34.289Z,4.15
2019-05-30T02:27:04.105Z,4.42
2019-05-30T02:29:32.938Z,6.10
2019-05-30T02:32:03.129Z,6.75
2019-05-30T02:34:31.742Z,2.17
2019-05-30T02:37:01.110Z,4.05
2019-05-30T02:39:30.731Z,6.33
2019-05-30T02:42:00.799Z,4.22
2019-05-30T02:44:29.795Z,10.60
2019-05-30T02:46:58.285Z,3.58
2019-05-30T02:49:27.343Z,4.60
2019-05-30T02:51:55.970Z,4.97
2019-05-30T02:54:24.420Z,5.58
2019-05-30T02:56:52.891Z,8.40
2019-05-30T02:59:21.404Z,3.75
2019-05-30T03:02:00.678Z,5.37
2019-05-30T03:04:20.057Z,6.90
2019-05-30T03:06:49.081Z,5.55
2019-05-30T03:09:17.818Z,6.55
2019-05-30T03:11:46.431Z,5.67
2019-05-30T03:14:19.445Z,3.05
2019-05-30T03:16:45.775Z,4.15
2019-05-30T03:19:14.237Z,5.92
2019-05-30T03:21:42.943Z,12.37
2019-05-30T03:24:12.401Z,5.42
2019-05-30T03:26:41.754Z,6.15
2019-05-30T03:29:12.504Z,4.53
2019-05-30T03:31:42.136Z,3.45
2019-05-30T03:34:22.061Z,4.10
2019-05-30T03:36:41.365Z,4.33
2019-05-30T03:39:10.888Z,3.50
2019-05-30T03:41:40.138Z,5.87
2019-05-30T03:44:10.730Z,4.00
2019-05-30T03:46:41.865Z,5.17
2019-05-30T03:49:15.063Z,6.90
2019-05-30T03:51:45.812Z,5.35
2019-05-30T03:54:15.985Z,4.50
2019-05-30T03:56:53.621Z,2.87
2019-05-30T03:59:27.690Z,3.33
2019-05-30T04:02:02.166Z,3.55
2019-05-30T04:04:33.681Z,4.42
2019-05-30T04:07:06.715Z,4.00
2019-05-30T04:09:37.591Z,2.70
2019-05-30T04:12:19.830Z,7.45
2019-05-30T04:14:51.817Z,6.87
2019-05-30T04:17:20.285Z,6.87
2019-05-30T04:19:48.751Z,5.75
2019-05-30T04:22:17.464Z,4.10
2019-05-30T04:24:45.894Z,3.27
2019-05-30T04:27:16.004Z,6.65
2019-05-30T04:29:44.651Z,4.28
2019-05-30T04:32:14.402Z,2.90
2019-05-30T04:34:43.153Z,6.78
2019-05-30T04:37:12.550Z,4.30
2019-05-30T04:39:41.104Z,6.87
2019-05-30T04:42:11.165Z,6.17
2019-05-30T04:44:40.131Z,6.83
2019-05-30T04:47:10.025Z,3.55
2019-05-30T04:49:38.762Z,7.08
2019-05-30T04:52:11.363Z,4.50
2019-05-30T04:54:37.459Z,7.83
2019-05-30T04:57:06.280Z,4.20
2019-05-30T04:59:34.731Z,4.58
2019-05-30T05:02:03.212Z,4.95
2019-05-30T05:04:31.885Z,4.67
2019-05-30T05:07:00.337Z,4.22
2019-05-30T05:09:28.813Z,5.72
2019-05-30T05:11:57.503Z,4.20
2019-05-30T05:14:25.957Z,4.60
2019-05-30T05:16:54.415Z,4.20
2019-05-30T05:19:25.650Z,4.95
2019-05-30T05:21:53.287Z,5.10
2019-05-30T05:24:21.769Z,4.08
2019-05-30T05:26:50.241Z,3.55
2019-05-30T05:29:19.860Z,3.08
2019-05-30T05:31:48.462Z,5.62
2019-05-30T05:34:18.557Z,5.70
2019-05-30T05:36:47.207Z,4.62
2019-05-30T05:39:16.137Z,3.22
2019-05-30T05:41:44.653Z,2.62
2019-05-30T05:44:13.132Z,2.58
2019-05-30T05:46:41.607Z,3.90
2019-05-30T05:49:10.276Z,3.85
2019-05-30T05:51:38.736Z,2.85
2019-05-30T05:54:07.197Z,3.02
2019-05-30T05:56:35.694Z,4.45
2019-05-30T05:59:04.435Z,4.60
2019-05-30T06:01:34.665Z,4.58
2019-05-30T06:04:12.733Z,3.55
2019-05-30T06:06:34.728Z,5.85
2019-05-30T06:09:04.843Z,2.85
2019-05-30T06:11:33.779Z,3.52
2019-05-30T06:14:02.260Z,4.28
2019-05-30T06:16:30.929Z,3.45
2019-05-30T06:18:59.412Z,5.33
2019-05-30T06:21:28.050Z,4.20
2019-05-30T06:23:57.839Z,3.72
2019-05-30T06:26:29.073Z,3.27
2019-05-30T06:28:57.794Z,3.20
2019-05-30T06:31:26.714Z,3.77
2019-05-30T06:33:55.290Z,6.10
2019-05-30T06:36:25.159Z,4.17
2019-05-30T06:38:56.403Z,4.60
2019-05-30T06:41:25.619Z,5.42
2019-05-30T06:43:55.269Z,4.25
2019-05-30T06:46:24.202Z,5.47
2019-05-30T06:48:53.274Z,3.05
2019-05-30T06:51:22.790Z,5.83
2019-05-30T06:53:51.660Z,2.83
2019-05-30T06:56:21.179Z,3.90
2019-05-30T06:58:51.283Z,3.15
2019-05-30T07:01:22.025Z,5.65
2019-05-30T07:03:53.884Z,4.05
2019-05-30T07:06:23.949Z,6.72
2019-05-30T07:08:54.219Z,9.38
2019-05-30T07:11:24.656Z,4.05
2019-05-30T07:13:54.570Z,8.43
2019-05-30T07:16:25.273Z,5.87
2019-05-30T07:18:55.299Z,5.20
2019-05-30T07:21:25.521Z,3.80
2019-05-30T07:23:54.202Z,11.00
2019-05-30T07:26:23.838Z,7.00
2019-05-30T07:28:53.101Z,4.58
2019-05-30T07:31:21.633Z,6.50
2019-05-30T07:33:50.904Z,4.65
2019-05-30T07:36:19.459Z,2.55
2019-05-30T07:38:48.046Z,3.10
2019-05-30T07:41:16.747Z,5.72
2019-05-30T07:43:45.414Z,3.67
2019-05-30T07:46:14.138Z,3.77
2019-05-30T07:48:42.645Z,4.50
2019-05-30T07:51:11.370Z,2.42
2019-05-30T07:53:40.179Z,15.72
2019-05-30T07:56:08.739Z,5.58
2019-05-30T07:58:37.628Z,5.95
2019-05-30T08:01:06.435Z,6.35
2019-05-30T08:03:35.104Z,3.52
2019-05-30T08:06:04.021Z,4.00
2019-05-30T08:08:33.861Z,28.00
2019-05-30T08:11:09.309Z,3.95
2019-05-30T08:13:33.331Z,3.15
2019-05-30T08:16:02.430Z,8.55
2019-05-30T08:18:31.684Z,5.42
2019-05-30T08:21:00.528Z,4.30
2019-05-30T08:23:30.057Z,6.40
2019-05-30T08:25:59.017Z,3.62
2019-05-30T08:28:28.781Z,5.53
2019-05-30T08:30:57.931Z,4.40
2019-05-30T08:33:26.513Z,3.75
2019-05-30T08:35:55.302Z,5.55
2019-05-30T08:38:24.303Z,5.08
2019-05-30T08:40:52.909Z,8.53
2019-05-30T08:43:21.571Z,6.92
2019-05-30T08:45:50.426Z,4.33
2019-05-30T08:48:19.145Z,7.53
2019-05-30T08:50:47.729Z,4.92
2019-05-30T08:53:16.652Z,5.10
2019-05-30T08:55:45.296Z,4.92
2019-05-30T08:58:14.085Z,6.42
2019-05-30T09:00:43.084Z,6.85
2019-05-30T09:03:11.749Z,6.12
2019-05-30T09:05:58.173Z,6.70
2019-05-30T09:08:11.251Z,6.20
2019-05-30T09:10:40.819Z,8.75
2019-05-30T09:13:09.806Z,6.65
2019-05-30T09:15:39.195Z,5.97
2019-05-30T09:18:08.421Z,8.75
2019-05-30T09:20:38.437Z,6.78
2019-05-30T09:23:08.031Z,6.50
2019-05-30T09:25:37.188Z,5.20
2019-05-30T09:28:07.245Z,9.10
2019-05-30T09:30:36.246Z,5.58
2019-05-30T09:33:05.216Z,5.85
2019-05-30T09:35:34.355Z,6.08
2019-05-30T09:38:03.176Z,6.67
2019-05-30T09:40:34.468Z,7.50
2019-05-30T09:43:03.171Z,10.08
2019-05-30T09:45:33.402Z,6.55
2019-05-30T09:48:02.058Z,7.80
2019-05-30T09:50:30.757Z,6.28
2019-05-30T09:52:59.620Z,7.20
2019-05-30T09:55:28.920Z,6.05
2019-05-30T09:57:57.947Z,6.00
2019-05-30T10:00:26.994Z,6.97
2019-05-30T10:02:55.717Z,7.87
2019-05-30T10:05:25.106Z,7.83
2019-05-30T10:07:54.330Z,9.58
2019-05-30T10:10:23.269Z,6.62
2019-05-30T10:12:52.710Z,5.20
2019-05-30T10:15:21.905Z,6.53
2019-05-30T10:17:52.950Z,7.80
2019-05-30T10:20:21.544Z,7.00
2019-05-30T10:22:52.122Z,6.90
2019-05-30T10:25:20.875Z,7.25
2019-05-30T10:27:50.895Z,5.55
2019-05-30T10:30:21.199Z,6.83
2019-05-30T10:32:50.274Z,7.47
2019-05-30T10:35:20.522Z,30.48
2019-05-30T10:37:50.943Z,9.98
2019-05-30T10:40:19.691Z,10.08
2019-05-30T10:42:51.080Z,8.28
2019-05-30T10:45:22.409Z,9.20
2019-05-30T10:47:51.469Z,13.68
2019-05-30T10:50:20.770Z,9.68
2019-05-30T10:52:51.400Z,17.30
2019-05-30T10:55:21.373Z,6.08
2019-05-30T10:57:51.629Z,15.03
2019-05-30T11:00:22.267Z,22.50
2019-05-30T11:02:51.271Z,10.23
2019-05-30T11:05:20.858Z,11.28
2019-05-30T11:08:10.745Z,4.65
2019-05-30T11:10:44.486Z,8.43
2019-05-30T11:13:18.839Z,6.62
2019-05-30T11:15:48.729Z,7.00
2019-05-30T11:18:18.252Z,13.40
2019-05-30T11:20:47.873Z,9.75
2019-05-30T11:23:16.663Z,10.78
2019-05-30T11:25:45.348Z,15.38
2019-05-30T11:28:14.242Z,8.68
2019-05-30T11:30:43.555Z,4.87
2019-05-30T11:33:12.420Z,9.98
2019-05-30T11:35:41.530Z,7.03
2019-05-30T11:38:10.216Z,9.80
2019-05-30T11:40:39.504Z,5.35
2019-05-30T11:43:08.399Z,4.92
2019-05-30T11:45:37.429Z,5.55
2019-05-30T11:48:06.184Z,8.55
2019-05-30T11:50:35.252Z,5.50
2019-05-30T11:53:04.224Z,5.60
2019-05-30T11:55:33.080Z,5.87
2019-05-30T11:58:01.993Z,8.30
2019-05-30T12:00:32.217Z,5.97
2019-05-30T12:03:00.861Z,5.83
2019-05-30T12:05:29.762Z,7.72
2019-05-30T12:07:58.962Z,5.53
2019-05-30T12:10:28.972Z,7.05
2019-05-30T12:12:57.727Z,5.35
2019-05-30T12:15:27.214Z,6.72
2019-05-30T12:17:57.366Z,9.25
2019-05-30T12:20:26.405Z,7.80
2019-05-30T12:22:55.898Z,7.55
2019-05-30T12:25:24.819Z,8.85
2019-05-30T12:27:54.042Z,10.58
2019-05-30T12:30:22.858Z,7.83
2019-05-30T12:32:52.392Z,9.68
2019-05-30T12:35:21.971Z,9.28
2019-05-30T12:37:56.180Z,7.72
2019-05-30T12:40:21.791Z,11.15
2019-05-30T12:42:55.369Z,7.50
2019-05-30T12:45:22.584Z,10.90
2019-05-30T12:47:51.221Z,12.65
2019-05-30T12:50:21.773Z,12.20
2019-05-30T12:52:50.665Z,8.40
2019-05-30T12:55:20.549Z,12.98
2019-05-30T12:57:49.459Z,10.30
2019-05-30T13:00:21.433Z,10.68
2019-05-30T13:02:50.470Z,14.73
2019-05-30T13:05:20.384Z,10.13
2019-05-30T13:07:49.249Z,15.28
2019-05-30T13:10:19.950Z,12.63
2019-05-30T13:12:49.306Z,10.28
2019-05-30T13:15:18.327Z,12.43
2019-05-30T13:17:46.911Z,12.13
2019-05-30T13:20:16.647Z,12.93
2019-05-30T13:22:45.326Z,11.38
2019-05-30T13:25:16.564Z,12.35
2019-05-30T13:27:45.307Z,10.75
2019-05-30T13:30:15.514Z,12.53
2019-05-30T13:32:44.860Z,12.43
2019-05-30T13:35:14.401Z,12.28
2019-05-30T13:37:43.354Z,13.78
2019-05-30T13:40:24.522Z,15.30
2019-05-30T13:42:43.473Z,12.33
2019-05-30T13:45:12.603Z,12.37
2019-05-30T13:47:41.722Z,12.45
2019-05-30T13:50:14.094Z,12.75
2019-05-30T13:55:13.096Z,13.68
2019-05-30T13:57:42.132Z,13.48
2019-05-30T14:00:13.228Z,12.47
2019-05-30T14:02:42.128Z,10.13
2019-05-30T14:05:11.629Z,11.63
2019-05-30T14:07:40.348Z,13.10
2019-05-30T14:10:10.944Z,12.88
2019-05-30T14:12:40.049Z,11.08
2019-05-30T14:15:14.474Z,9.93
2019-05-30T14:17:44.177Z,9.78
2019-05-30T14:20:14.329Z,14.07
2019-05-30T14:22:43.128Z,11.08
2019-05-30T14:25:14.099Z,12.30
2019-05-30T14:27:43.644Z,12.30
2019-05-30T14:30:14.316Z,12.28
2019-05-30T14:32:43.621Z,11.15
2019-05-30T14:35:13.852Z,14.03
2019-05-30T14:37:42.932Z,12.07
2019-05-30T14:40:18.294Z,12.90
2019-05-30T14:42:47.195Z,11.60
2019-05-30T14:45:17.217Z,10.45
2019-05-30T14:47:46.016Z,10.30
2019-05-30T14:50:17.283Z,11.90
2019-05-30T14:52:46.477Z,12.25
2019-05-30T14:55:15.568Z,11.25
2019-05-30T14:57:46.332Z,10.90
2019-05-30T15:00:17.978Z,11.55
2019-05-30T15:02:46.749Z,10.93
2019-05-30T15:05:15.941Z,9.40
2019-05-30T15:07:44.719Z,9.90
2019-05-30T15:10:14.269Z,11.25
2019-05-30T15:12:43.030Z,12.70
2019-05-30T15:15:14.744Z,9.78
2019-05-30T15:17:43.475Z,11.65
2019-05-30T15:20:13.880Z,9.43
2019-05-30T15:22:44.115Z,11.08
2019-05-30T15:25:16.462Z,9.08
2019-05-30T15:27:44.438Z,10.15
2019-05-30T15:30:14.799Z,9.88
2019-05-30T15:32:43.848Z,11.43
2019-05-30T15:35:13.436Z,8.40
2019-05-30T15:37:42.116Z,9.20
2019-05-30T15:40:12.925Z,11.43
2019-05-30T15:42:41.832Z,10.20
2019-05-30T15:45:11.996Z,9.70
2019-05-30T15:47:41.550Z,8.40
2019-05-30T15:50:11.835Z,8.68
2019-05-30T15:52:41.112Z,8.43
2019-05-30T15:55:11.367Z,9.55
2019-05-30T15:57:39.957Z,11.03
2019-05-30T16:00:14.041Z,10.98
2019-05-30T16:02:43.665Z,11.43
2019-05-30T16:05:14.819Z,10.18
2019-05-30T16:07:43.686Z,9.03
2019-05-30T16:10:13.282Z,11.57
2019-05-30T16:12:42.514Z,10.20
2019-05-30T16:15:13.347Z,9.43
2019-05-30T16:17:42.356Z,10.70
2019-05-30T16:20:11.883Z,9.13
2019-05-30T16:22:40.537Z,8.85
2019-05-30T16:25:09.624Z,11.22
2019-05-30T16:27:38.194Z,10.00
2019-05-30T16:30:08.698Z,9.28
2019-05-30T16:32:37.959Z,9.37
2019-05-30T16:35:08.308Z,12.53
2019-05-30T16:37:36.845Z,11.55
2019-05-30T16:40:08.006Z,10.63
2019-05-30T16:42:36.616Z,9.13
2019-05-30T16:45:09.293Z,9.33
2019-05-30T16:47:38.263Z,10.28
2019-05-30T16:50:08.574Z,11.05
2019-05-30T16:52:37.159Z,11.45
2019-05-30T16:55:08.942Z,9.90
2019-05-30T17:03:21.967Z,10.10
2019-05-30T17:05:52.325Z,12.70
2019-05-30T17:08:20.709Z,13.38
2019-05-30T17:10:49.508Z,14.03
2019-05-30T17:13:17.972Z,11.60
2019-05-30T17:15:46.464Z,11.15
2019-05-30T17:18:16.010Z,10.35
2019-05-30T17:20:44.957Z,9.75
2019-05-30T17:23:13.507Z,11.43
2019-05-30T17:25:42.360Z,10.90
2019-05-30T17:28:10.829Z,11.30
2019-05-30T17:30:39.303Z,10.53
2019-05-30T17:33:07.958Z,11.15
2019-05-30T17:35:36.771Z,12.35
2019-05-30T17:38:05.246Z,10.28
2019-05-30T17:40:44.136Z,11.05
2019-05-30T17:43:04.245Z,10.68
2019-05-30T17:45:32.712Z,12.07
2019-05-30T17:48:15.662Z,10.75
2019-05-30T17:50:32.040Z,11.35
2019-05-30T17:53:00.557Z,13.65
2019-05-30T17:55:30.130Z,16.87
2019-05-30T17:57:59.055Z,12.68
2019-05-30T18:00:28.496Z,9.73
2019-05-30T18:02:57.510Z,24.77
2019-05-30T18:05:26.760Z,11.85
2019-05-30T18:07:55.585Z,11.00
2019-05-30T18:10:24.946Z,15.18
2019-05-30T18:12:53.611Z,13.85
2019-05-30T18:15:25.013Z,12.33
2019-05-30T18:17:53.137Z,13.48
2019-05-30T18:20:21.688Z,13.85
2019-05-30T18:22:50.211Z,13.88
2019-05-30T18:25:21.517Z,11.83
2019-05-30T18:27:50.535Z,12.37
2019-05-30T18:30:19.455Z,15.35
2019-05-30T18:32:48.331Z,13.05
2019-05-30T18:35:17.162Z,13.45
2019-05-30T18:37:45.937Z,13.50
2019-05-30T18:40:17.879Z,12.75
2019-05-30T18:42:46.594Z,13.20
2019-05-30T18:45:17.080Z,13.32
2019-05-30T18:47:46.502Z,17.98
2019-05-30T18:50:15.085Z,11.70
2019-05-30T18:52:43.697Z,13.45
2019-05-30T18:55:12.621Z,13.83
2019-05-30T18:57:41.250Z,14.33
2019-05-30T19:00:12.605Z,15.05
2019-05-30T19:02:40.935Z,13.33
2019-05-30T19:05:11.102Z,15.08
2019-05-30T19:07:39.673Z,16.23
2019-05-30T19:10:09.231Z,14.43
2019-05-30T19:12:37.718Z,14.45
2019-05-30T19:15:08.344Z,12.70
2019-05-30T19:17:36.856Z,18.15
2019-05-30T19:20:07.348Z,18.52
2019-05-30T19:22:36.439Z,13.55
2019-05-30T19:25:07.356Z,19.48
2019-05-30T19:27:37.112Z,13.18
2019-05-30T19:30:10.599Z,15.43
2019-05-30T19:32:39.115Z,12.65
2019-05-30T19:35:09.039Z,13.38
2019-05-30T19:37:37.784Z,13.83
2019-05-30T19:40:07.100Z,12.93
2019-05-30T19:42:35.657Z,16.75
2019-05-30T19:45:06.937Z,15.08
2019-05-30T19:47:36.611Z,15.35
2019-05-30T19:50:09.043Z,14.78
2019-05-30T19:52:38.908Z,13.53
2019-05-30T19:55:08.664Z,19.37
2019-05-30T19:57:37.844Z,15.65
2019-05-30T20:00:11.738Z,15.48
2019-05-30T20:02:40.661Z,14.25
2019-05-30T20:05:09.652Z,16.82
2019-05-30T20:07:38.905Z,16.15
2019-05-30T20:10:08.331Z,16.55
2019-05-30T20:12:37.139Z,16.73
2019-05-30T20:15:08.721Z,15.68
2019-05-30T20:17:37.674Z,13.93
2019-05-30T20:20:06.868Z,14.13
2019-05-30T20:22:36.226Z,14.43
2019-05-30T20:25:08.015Z,15.63
2019-05-30T20:27:36.780Z,12.78
2019-05-30T20:30:09.647Z,14.70
2019-05-30T20:32:38.870Z,24.98
2019-05-30T20:35:08.165Z,16.20
2019-05-30T20:37:36.899Z,19.57
2019-05-30T20:40:10.508Z,13.90
2019-05-30T20:42:39.142Z,17.48
2019-05-30T20:45:10.118Z,16.62
2019-05-30T20:47:40.686Z,14.60
2019-05-30T20:50:14.189Z,14.70
2019-05-30T20:52:43.733Z,14.05
2019-05-30T20:55:12.702Z,16.55
2019-05-30T20:57:42.469Z,18.15
2019-05-30T21:00:12.915Z,13.62
2019-05-30T21:02:41.490Z,17.70
2019-05-30T21:05:10.860Z,15.10
2019-05-30T21:07:42.438Z,15.55
2019-05-30T21:10:11.683Z,13.65
2019-05-30T21:12:44.654Z,16.70
2019-05-30T21:15:11.721Z,16.35
2019-05-30T21:17:41.903Z,20.45
2019-05-30T21:20:11.798Z,16.62
2019-05-30T21:22:40.465Z,18.90
2019-05-30T21:25:09.893Z,18.77
2019-05-30T21:27:39.112Z,24.27
2019-05-30T21:30:08.371Z,20.45
2019-05-30T21:32:37.623Z,18.37
2019-05-30T21:35:07.751Z,18.92
2019-05-30T21:37:37.603Z,21.02
2019-05-30T21:40:09.770Z,17.77
2019-05-30T21:45:08.310Z,22.02
2019-05-30T21:47:36.894Z,17.65
2019-05-30T21:50:07.278Z,21.50
2019-05-30T21:52:36.204Z,21.82
2019-05-30T21:55:06.971Z,18.70
2019-05-30T21:57:35.443Z,19.52
2019-05-30T22:00:09.770Z,19.00
2019-05-30T22:02:38.508Z,20.30
2019-05-30T22:05:07.750Z,18.90
2019-05-30T22:07:36.461Z,19.07
2019-05-30T22:10:05.980Z,18.82
2019-05-30T22:12:34.650Z,18.98
2019-05-30T22:15:03.282Z,18.73
2019-05-30T22:17:31.870Z,21.02
2019-05-30T22:20:00.361Z,18.42
2019-05-30T22:22:28.830Z,21.30
2019-05-30T22:24:57.499Z,21.37
2019-05-30T22:27:25.974Z,22.52
2019-05-30T22:29:54.456Z,17.45
2019-05-30T22:32:23.065Z,17.75
2019-05-30T22:34:52.941Z,18.57
2019-05-30T22:37:21.592Z,21.52
2019-05-30T22:39:51.020Z,18.85
2019-05-30T22:42:19.503Z,18.42
2019-05-30T22:44:48.204Z,17.60
2019-05-30T22:47:16.899Z,17.00
2019-05-30T23:11:15.193Z,16.48
2019-05-30T23:13:43.949Z,16.25
2019-05-30T23:16:16.863Z,16.52
2019-05-30T23:18:48.632Z,18.95
2019-05-30T23:21:20.046Z,20.57
2019-05-30T23:23:57.275Z,17.48
2019-05-30T23:26:30.501Z,19.62
2019-05-30T23:29:04.616Z,20.25
2019-05-30T23:31:33.733Z,18.42
2019-05-30T23:34:05.556Z,19.27
2019-05-30T23:36:45.074Z,18.20
2019-05-30T23:39:14.122Z,22.87
2019-05-30T23:41:45.879Z,18.27
2019-05-30T23:44:18.055Z,20.00
2019-05-30T23:46:53.560Z,22.17
2019-05-30T23:49:23.930Z,20.50
2019-05-30T23:51:58.413Z,22.93
2019-05-30T23:54:30.943Z,21.23
2019-05-30T23:59:31.491Z,20.25
